createdAt,value
2019-05-11T00:02:15.515Z,10.20
2019-05-11T00:04:44.221Z,10.20
2019-05-11T00:07:12.273Z,10.20
2019-05-11T00:09:55.659Z,10.20
2019-05-11T00:12:10.975Z,10.20
2019-05-11T00:14:39.040Z,10.10
2019-05-11T00:17:07.065Z,10.10
2019-05-11T00:19:35.461Z,10.10
2019-05-11T00:22:03.523Z,10.00
2019-05-11T00:24:31.465Z,9.90
2019-05-11T00:26:59.513Z,9.90
2019-05-11T00:29:28.362Z,9.80
2019-05-11T00:31:56.725Z,9.80
2019-05-11T00:34:25.207Z,9.80
2019-05-11T00:36:53.322Z,9.70
2019-05-11T00:39:21.765Z,9.70
2019-05-11T00:41:50.833Z,9.70
2019-05-11T00:44:18.937Z,9.70
2019-05-11T00:46:48.063Z,9.70
2019-05-11T00:49:16.367Z,9.60
2019-05-11T00:51:44.453Z,9.60
2019-05-11T00:54:12.482Z,9.60
2019-05-11T00:56:40.881Z,9.70
2019-05-11T00:59:20.959Z,9.70
2019-05-11T01:01:38.721Z,9.70
2019-05-11T01:04:07.271Z,9.70
2019-05-11T01:06:35.455Z,9.70
2019-05-11T01:09:06.054Z,9.80
2019-05-11T01:11:34.496Z,9.70
2019-05-11T01:14:02.883Z,9.70
2019-05-11T01:16:31.091Z,9.70
2019-05-11T01:18:59.518Z,9.70
2019-05-11T01:21:27.600Z,9.70
2019-05-11T01:23:55.734Z,9.60
2019-05-11T01:26:24.393Z,9.60
2019-05-11T01:28:52.462Z,9.50
2019-05-11T01:31:20.625Z,9.60
2019-05-11T01:33:48.710Z,9.60
2019-05-11T01:36:16.718Z,9.60
2019-05-11T01:38:45.563Z,9.60
2019-05-11T01:41:14.098Z,9.60
2019-05-11T01:43:42.271Z,9.60
2019-05-11T01:46:11.063Z,9.60
2019-05-11T01:48:39.240Z,9.60
2019-05-11T01:51:07.413Z,9.60
2019-05-11T01:53:35.593Z,9.70
2019-05-11T01:56:03.692Z,9.60
2019-05-11T01:58:31.824Z,9.70
2019-05-11T02:01:00.184Z,9.60
2019-05-11T02:03:28.428Z,9.70
2019-05-11T02:05:56.452Z,9.60
2019-05-11T02:08:24.568Z,9.70
2019-05-11T02:10:52.730Z,9.80
2019-05-11T02:13:21.498Z,9.80
2019-05-11T02:15:49.410Z,9.90
2019-05-11T02:18:17.646Z,9.90
2019-05-11T02:20:45.501Z,10.00
2019-05-11T02:23:13.346Z,10.00
2019-05-11T02:25:41.184Z,10.10
2019-05-11T02:28:09.480Z,10.10
2019-05-11T02:30:37.297Z,10.10
2019-05-11T02:33:05.206Z,10.20
2019-05-11T02:35:33.057Z,10.10
2019-05-11T02:38:01.000Z,10.20
2019-05-11T02:40:28.873Z,10.20
2019-05-11T02:42:56.887Z,10.20
2019-05-11T02:45:40.033Z,10.20
2019-05-11T02:48:08.654Z,10.10
2019-05-11T02:50:37.076Z,10.10
2019-05-11T02:53:05.968Z,10.10
2019-05-11T02:55:34.583Z,10.10
2019-05-11T02:58:04.200Z,10.10
2019-05-11T03:00:42.860Z,10.10
2019-05-11T03:03:10.812Z,10.10
2019-05-11T03:05:38.870Z,10.10
2019-05-11T03:08:06.811Z,10.10
2019-05-11T03:10:34.709Z,10.10
2019-05-11T03:13:02.958Z,10.00
2019-05-11T03:15:33.108Z,10.00
2019-05-11T03:18:01.349Z,9.90
2019-05-11T03:20:29.265Z,9.90
2019-05-11T03:22:57.119Z,9.80
2019-05-11T03:25:25.039Z,9.80
2019-05-11T03:27:52.921Z,9.70
2019-05-11T03:30:20.909Z,9.70
2019-05-11T03:32:49.106Z,9.70
2019-05-11T03:35:17.293Z,9.70
2019-05-11T03:37:45.485Z,9.70
2019-05-11T03:40:13.655Z,9.70
2019-05-11T03:42:41.657Z,9.70
2019-05-11T03:45:10.331Z,9.60
2019-05-11T03:47:38.298Z,9.60
2019-05-11T03:50:09.012Z,9.60
2019-05-11T03:52:37.611Z,9.50
2019-05-11T03:55:06.906Z,9.40
2019-05-11T03:57:34.992Z,9.40
2019-05-11T04:00:03.438Z,9.30
2019-05-11T04:02:31.480Z,9.30
2019-05-11T04:04:59.427Z,9.30
2019-05-11T04:07:27.407Z,9.20
2019-05-11T04:09:55.408Z,9.20
2019-05-11T04:12:34.188Z,9.10
2019-05-11T04:14:53.557Z,9.10
2019-05-11T04:17:22.650Z,9.10
2019-05-11T04:19:51.554Z,9.00
2019-05-11T04:22:19.486Z,9.00
2019-05-11T04:24:47.761Z,9.00
2019-05-11T04:27:19.498Z,9.00
2019-05-11T04:29:45.652Z,9.00
2019-05-11T04:32:13.897Z,9.00
2019-05-11T04:34:42.018Z,9.00
2019-05-11T04:37:09.966Z,9.10
2019-05-11T04:39:38.746Z,9.10
2019-05-11T04:42:06.991Z,9.10
2019-05-11T04:44:35.230Z,9.00
2019-05-11T04:47:04.111Z,9.00
2019-05-11T04:49:32.534Z,9.00
2019-05-11T04:52:00.678Z,9.00
2019-05-11T04:54:28.815Z,9.00
2019-05-11T04:56:56.905Z,9.00
2019-05-11T04:59:25.411Z,9.00
2019-05-11T05:01:53.561Z,9.00
2019-05-11T05:04:21.905Z,9.00
2019-05-11T05:06:59.494Z,9.00
2019-05-11T05:09:20.267Z,9.00
2019-05-11T05:11:48.527Z,9.00
2019-05-11T05:14:16.874Z,9.10
2019-05-11T05:16:48.613Z,9.10
2019-05-11T05:19:31.659Z,9.10
2019-05-11T05:22:01.020Z,9.10
2019-05-11T05:24:29.088Z,9.20
2019-05-11T05:26:57.389Z,9.30
2019-05-11T05:29:26.359Z,9.40
2019-05-11T05:31:54.460Z,9.50
2019-05-11T05:34:25.162Z,9.50
2019-05-11T05:36:56.566Z,9.50
2019-05-11T05:39:28.647Z,9.50
2019-05-11T05:41:59.695Z,9.70
2019-05-11T05:44:29.595Z,9.80
2019-05-11T05:47:01.421Z,10.00
2019-05-11T05:49:29.813Z,10.10
2019-05-11T05:51:58.698Z,10.40
2019-05-11T05:54:27.737Z,10.60
2019-05-11T05:56:58.819Z,10.80
2019-05-11T05:59:27.507Z,10.80
2019-05-11T06:01:56.722Z,10.80
2019-05-11T06:04:25.598Z,11.00
2019-05-11T06:06:54.859Z,11.20
2019-05-11T06:09:27.476Z,11.30
2019-05-11T06:11:56.811Z,11.40
2019-05-11T06:14:24.832Z,11.40
2019-05-11T06:16:54.310Z,11.40
2019-05-11T06:19:23.176Z,11.40
2019-05-11T06:21:51.138Z,11.40
2019-05-11T06:24:19.324Z,11.40
2019-05-11T06:26:47.242Z,11.50
2019-05-11T06:29:15.045Z,11.60
2019-05-11T06:31:44.330Z,11.70
2019-05-11T06:34:12.324Z,11.70
2019-05-11T06:36:40.430Z,11.80
2019-05-11T06:39:08.533Z,11.80
2019-05-11T06:41:37.439Z,11.80
2019-05-11T06:44:05.890Z,12.00
2019-05-11T06:46:35.117Z,12.20
2019-05-11T06:49:03.872Z,12.30
2019-05-11T06:51:31.864Z,12.40
2019-05-11T06:54:03.064Z,12.40
2019-05-11T06:56:31.264Z,12.50
2019-05-11T06:59:00.380Z,12.60
2019-05-11T07:01:28.406Z,12.70
2019-05-11T07:03:56.327Z,12.70
2019-05-11T07:06:27.026Z,12.70
2019-05-11T07:08:53.971Z,12.80
2019-05-11T07:11:22.609Z,12.80
2019-05-11T07:13:52.464Z,12.90
2019-05-11T07:16:20.270Z,13.10
2019-05-11T07:18:48.208Z,13.00
2019-05-11T07:21:16.502Z,13.10
2019-05-11T07:23:44.828Z,13.00
2019-05-11T07:26:12.853Z,13.10
2019-05-11T07:28:41.266Z,13.20
2019-05-11T07:31:09.640Z,13.50
2019-05-11T07:33:38.044Z,13.50
2019-05-11T07:36:08.297Z,13.40
2019-05-11T07:38:38.205Z,13.60
2019-05-11T07:41:08.621Z,13.60
2019-05-11T07:43:38.059Z,13.60
2019-05-11T07:46:07.772Z,13.70
2019-05-11T07:48:35.442Z,13.40
2019-05-11T07:51:03.355Z,13.50
2019-05-11T07:53:31.264Z,13.60
2019-05-11T07:55:59.296Z,13.70
2019-05-11T07:58:28.517Z,13.90
2019-05-11T08:00:58.194Z,14.00
2019-05-11T08:03:28.464Z,13.90
2019-05-11T08:05:58.224Z,14.00
2019-05-11T08:08:28.363Z,13.80
2019-05-11T08:10:58.555Z,13.90
2019-05-11T08:13:28.164Z,14.10
2019-05-11T08:15:57.867Z,14.30
2019-05-11T08:18:27.970Z,14.20
2019-05-11T08:20:55.416Z,14.40
2019-05-11T08:23:23.358Z,14.60
2019-05-11T08:25:54.310Z,14.60
2019-05-11T08:28:21.061Z,14.80
2019-05-11T08:30:49.339Z,14.90
2019-05-11T08:33:18.176Z,14.60
2019-05-11T08:35:48.042Z,14.50
2019-05-11T08:38:18.034Z,14.70
2019-05-11T08:40:48.537Z,14.80
2019-05-11T08:43:17.953Z,14.70
2019-05-11T08:45:48.382Z,14.80
2019-05-11T08:48:18.621Z,15.00
2019-05-11T08:50:48.821Z,15.30
2019-05-11T08:53:17.823Z,15.50
2019-05-11T08:55:45.908Z,15.50
2019-05-11T08:58:14.245Z,15.40
2019-05-11T09:00:42.528Z,15.60
2019-05-11T09:03:10.568Z,15.30
2019-05-11T09:05:38.613Z,15.30
2019-05-11T09:08:08.205Z,15.40
2019-05-11T09:10:39.696Z,15.20
2019-05-11T09:13:08.062Z,15.20
2019-05-11T09:15:38.243Z,15.40
2019-05-11T09:18:05.691Z,15.60
2019-05-11T09:20:33.960Z,15.80
2019-05-11T09:23:02.014Z,16.10
2019-05-11T09:25:29.925Z,16.30
2019-05-11T09:27:58.673Z,16.60
2019-05-11T09:30:28.738Z,16.80
2019-05-11T09:32:58.116Z,16.60
2019-05-11T09:35:26.067Z,16.50
2019-05-11T09:37:54.300Z,16.50
2019-05-11T09:40:22.551Z,16.60
2019-05-11T09:42:50.559Z,16.40
2019-05-11T09:45:18.910Z,16.20
2019-05-11T09:47:47.853Z,16.50
2019-05-11T09:50:17.950Z,16.90
2019-05-11T09:52:46.047Z,17.00
2019-05-11T09:55:14.431Z,16.90
2019-05-11T09:57:42.328Z,16.70
2019-05-11T10:00:10.700Z,16.50
2019-05-11T10:02:38.872Z,16.20
2019-05-11T10:05:08.402Z,16.10
2019-05-11T10:07:38.076Z,16.10
2019-05-11T10:10:08.919Z,16.40
2019-05-11T10:12:38.022Z,16.70
2019-05-11T10:15:08.329Z,16.80
2019-05-11T10:17:38.287Z,16.50
2019-05-11T10:20:08.913Z,15.80
2019-05-11T10:22:38.424Z,15.00
2019-05-11T10:25:08.828Z,14.50
2019-05-11T10:27:38.328Z,14.30
2019-05-11T10:30:08.318Z,14.30
2019-05-11T10:32:37.916Z,14.50
2019-05-11T10:35:08.037Z,14.50
2019-05-11T10:37:38.709Z,14.50
2019-05-11T10:40:06.376Z,15.00
2019-05-11T10:42:34.621Z,15.10
2019-05-11T10:45:02.477Z,14.70
2019-05-11T10:47:30.749Z,14.60
2019-05-11T10:49:58.784Z,14.60
2019-05-11T10:52:28.541Z,15.70
2019-05-11T10:54:58.610Z,16.60
2019-05-11T10:57:28.272Z,16.70
2019-05-11T10:59:57.965Z,17.30
2019-05-11T11:02:27.740Z,17.50
2019-05-11T11:04:55.865Z,17.10
2019-05-11T11:07:23.760Z,16.60
2019-05-11T11:09:51.680Z,16.70
2019-05-11T11:12:19.888Z,16.70
2019-05-11T11:14:48.272Z,17.10
2019-05-11T11:17:16.271Z,17.10
2019-05-11T11:20:27.818Z,16.30
2019-05-11T11:22:59.734Z,16.40
2019-05-11T11:29:05.226Z,15.70
2019-05-11T11:31:35.394Z,16.40
2019-05-11T11:34:04.044Z,15.60
2019-05-11T11:36:34.696Z,16.00
2019-05-11T11:39:05.588Z,16.50
2019-05-11T11:41:33.902Z,17.00
2019-05-11T11:44:02.744Z,16.90
2019-05-11T11:46:32.473Z,16.90
2019-05-11T11:49:03.142Z,17.10
2019-05-11T11:51:32.264Z,17.10
2019-05-11T11:54:02.233Z,16.90
2019-05-11T11:56:32.617Z,16.60
2019-05-11T11:59:01.700Z,16.80
2019-05-11T12:01:30.994Z,16.50
2019-05-11T12:03:59.638Z,16.10
2019-05-11T12:06:31.459Z,15.90
2019-05-11T12:09:00.161Z,16.00
2019-05-11T12:11:30.732Z,16.10
2019-05-11T12:13:59.442Z,16.10
2019-05-11T12:16:28.474Z,15.90
2019-05-11T12:18:58.460Z,16.30
2019-05-11T12:21:27.738Z,16.50
2019-05-11T12:23:58.486Z,16.20
2019-05-11T12:26:28.146Z,16.60
2019-05-11T12:28:58.296Z,16.90
2019-05-11T12:31:29.640Z,16.50
2019-05-11T12:33:58.688Z,16.70
2019-05-11T12:36:28.174Z,17.10
2019-05-11T12:38:58.120Z,17.10
2019-05-11T12:41:28.010Z,16.50
2019-05-11T12:43:57.810Z,16.40
2019-05-11T12:46:27.664Z,16.10
2019-05-11T12:48:59.841Z,16.10
2019-05-11T12:51:28.088Z,16.20
2019-05-11T12:53:57.692Z,16.30
2019-05-11T12:56:27.740Z,16.20
2019-05-11T12:59:15.021Z,16.40
2019-05-11T13:01:48.543Z,16.10
2019-05-11T13:04:18.151Z,16.20
2019-05-11T13:06:47.937Z,16.30
2019-05-11T13:09:18.307Z,16.30
2019-05-11T13:11:48.402Z,16.10
2019-05-11T13:14:19.961Z,16.40
2019-05-11T13:16:53.965Z,16.10
2019-05-11T13:19:23.895Z,16.10
2019-05-11T13:21:53.262Z,16.10
2019-05-11T13:24:28.223Z,16.60
2019-05-11T13:26:59.575Z,16.60
2019-05-11T13:29:28.689Z,16.20
2019-05-11T13:32:38.389Z,16.40
2019-05-11T13:35:08.881Z,16.20
2019-05-11T13:37:38.625Z,16.00
2019-05-11T13:43:23.575Z,16.40
2019-05-11T13:45:52.017Z,16.30
2019-05-11T13:48:57.930Z,16.00
2019-05-11T13:51:28.654Z,16.20
2019-05-11T13:54:22.112Z,16.70
2019-05-11T13:56:50.897Z,16.40
2019-05-11T13:59:20.836Z,15.90
2019-05-11T14:01:49.325Z,15.50
2019-05-11T14:04:18.411Z,15.60
2019-05-11T14:06:48.593Z,15.90
2019-05-11T14:09:18.418Z,16.10
2019-05-11T14:11:47.860Z,16.40
2019-05-11T14:14:18.393Z,16.00
2019-05-11T14:16:48.502Z,15.70
2019-05-11T14:19:18.324Z,15.90
2019-05-11T14:21:48.789Z,15.80
2019-05-11T14:24:18.403Z,15.80
2019-05-11T14:26:49.363Z,15.90
2019-05-11T14:29:19.244Z,15.80
2019-05-11T14:31:49.986Z,15.80
2019-05-11T14:34:19.597Z,15.40
2019-05-11T14:36:48.201Z,15.60
2019-05-11T14:39:18.801Z,15.80
2019-05-11T14:41:48.781Z,15.70
2019-05-11T14:44:18.095Z,15.50
2019-05-11T14:46:47.769Z,15.50
2019-05-11T14:49:18.629Z,15.40
2019-05-11T14:51:48.491Z,15.20
2019-05-11T14:54:18.745Z,15.50
2019-05-11T14:56:48.172Z,15.20
2019-05-11T14:59:18.447Z,15.40
2019-05-11T15:01:48.760Z,15.30
2019-05-11T15:04:17.958Z,15.10
2019-05-11T15:06:45.669Z,15.20
2019-05-11T15:09:14.102Z,15.40
2019-05-11T15:11:42.309Z,14.90
2019-05-11T15:14:10.137Z,14.80
2019-05-11T15:16:38.535Z,14.80
2019-05-11T15:19:08.037Z,14.80
2019-05-11T15:21:36.009Z,14.80
2019-05-11T15:24:04.457Z,14.50
2019-05-11T15:26:34.877Z,14.60
2019-05-11T15:29:03.435Z,14.50
2019-05-11T15:31:31.526Z,14.30
2019-05-11T15:33:59.486Z,14.30
2019-05-11T15:36:28.570Z,14.50
2019-05-11T15:38:58.241Z,14.90
2019-05-11T15:41:28.103Z,14.80
2019-05-11T15:43:57.951Z,14.40
2019-05-11T15:46:28.216Z,14.60
2019-05-11T15:49:02.993Z,14.50
2019-05-11T15:51:29.117Z,14.40
2019-05-11T15:53:58.719Z,14.30
2019-05-11T15:56:28.020Z,14.60
2019-05-11T15:58:57.812Z,14.20
2019-05-11T16:01:25.791Z,14.10
2019-05-11T16:03:53.886Z,14.50
2019-05-11T16:06:22.063Z,14.30
2019-05-11T16:08:50.070Z,14.60
2019-05-11T16:11:18.477Z,14.50
2019-05-11T16:13:48.378Z,13.90
2019-05-11T16:16:17.640Z,13.90
2019-05-11T16:18:48.379Z,13.70
2019-05-11T16:21:19.475Z,13.60
2019-05-11T16:23:48.665Z,13.70
2019-05-11T16:26:17.636Z,14.30
2019-05-11T16:28:47.700Z,14.30
2019-05-11T16:31:17.902Z,14.00
2019-05-11T16:33:48.320Z,13.40
2019-05-11T16:36:18.068Z,13.20
2019-05-11T16:38:48.352Z,13.30
2019-05-11T16:41:18.266Z,13.40
2019-05-11T16:43:47.951Z,13.40
2019-05-11T16:46:17.721Z,13.20
2019-05-11T16:48:46.319Z,13.00
2019-05-11T16:51:14.813Z,12.90
2019-05-11T16:53:43.408Z,13.30
2019-05-11T16:56:12.004Z,13.40
2019-05-11T16:58:41.079Z,13.20
2019-05-11T17:01:09.502Z,12.80
2019-05-11T17:03:38.436Z,12.60
2019-05-11T17:06:08.319Z,12.10
2019-05-11T17:08:38.389Z,11.80
2019-05-11T17:11:08.252Z,11.60
2019-05-11T17:13:37.932Z,11.40
2019-05-11T17:16:08.746Z,11.40
2019-05-11T17:18:37.577Z,11.40
2019-05-11T17:21:07.809Z,11.40
2019-05-11T17:23:38.424Z,11.40
2019-05-11T17:26:08.689Z,11.30
2019-05-11T17:28:38.523Z,11.20
2019-05-11T17:31:07.998Z,11.20
2019-05-11T17:33:38.439Z,11.20
2019-05-11T17:36:08.400Z,11.10
2019-05-11T17:38:39.000Z,11.10
2019-05-11T17:41:08.469Z,11.10
2019-05-11T17:43:38.648Z,11.00
2019-05-11T17:46:08.179Z,10.90
2019-05-11T17:48:38.603Z,10.90
2019-05-11T17:51:18.367Z,10.90
2019-05-11T17:53:37.823Z,10.80
2019-05-11T17:56:06.722Z,10.80
2019-05-11T17:58:37.675Z,10.80
2019-05-11T18:01:06.367Z,10.70
2019-05-11T18:03:34.736Z,10.70
2019-05-11T18:06:03.081Z,10.60
2019-05-11T18:08:31.164Z,10.60
2019-05-11T18:10:59.026Z,10.50
2019-05-11T18:13:28.364Z,10.50
2019-05-11T18:15:57.849Z,10.50
2019-05-11T18:18:25.984Z,10.60
2019-05-11T18:20:54.197Z,10.60
2019-05-11T18:23:22.661Z,10.50
2019-05-11T18:25:50.541Z,10.40
2019-05-11T18:28:18.560Z,10.20
2019-05-11T18:30:47.978Z,10.20
2019-05-11T18:33:18.647Z,10.20
2019-05-11T18:35:45.903Z,10.10
2019-05-11T18:38:14.153Z,10.10
2019-05-11T18:40:42.212Z,10.10
2019-05-11T18:43:10.398Z,10.00
2019-05-11T18:45:38.564Z,9.90
2019-05-11T18:48:08.092Z,9.90
2019-05-11T18:50:38.396Z,9.80
2019-05-11T18:53:08.885Z,9.80
2019-05-11T18:55:37.913Z,9.70
2019-05-11T18:58:06.701Z,9.70
2019-05-11T19:00:35.298Z,9.70
2019-05-11T19:03:03.849Z,9.60
2019-05-11T19:05:32.087Z,9.60
2019-05-11T19:08:00.517Z,9.50
2019-05-11T19:10:28.807Z,9.50
2019-05-11T19:13:05.051Z,9.40
2019-05-11T19:15:34.952Z,9.40
2019-05-11T19:18:05.577Z,9.40
2019-05-11T19:20:44.958Z,9.40
2019-05-11T19:23:09.424Z,9.40
2019-05-11T19:25:39.359Z,9.30
2019-05-11T19:28:08.532Z,9.40
2019-05-11T19:30:38.479Z,9.30
2019-05-11T19:33:10.696Z,9.30
2019-05-11T19:35:37.839Z,9.30
2019-05-11T19:38:08.441Z,9.20
2019-05-11T19:40:38.364Z,9.10
2019-05-11T19:43:08.153Z,9.10
2019-05-11T19:45:38.197Z,9.00
2019-05-11T19:48:08.157Z,9.00
2019-05-11T19:50:38.160Z,8.90
2019-05-11T19:53:08.422Z,8.90
2019-05-11T19:55:36.499Z,8.80
2019-05-11T19:58:04.317Z,8.60
2019-05-11T20:00:32.455Z,8.60
2019-05-11T20:03:00.710Z,8.50
2019-05-11T20:05:28.922Z,8.40
2019-05-11T20:07:58.725Z,8.40
2019-05-11T20:10:27.727Z,8.40
2019-05-11T20:12:55.855Z,8.40
2019-05-11T20:15:24.065Z,8.40
2019-05-11T20:17:51.961Z,8.30
2019-05-11T20:20:20.117Z,8.20
2019-05-11T20:22:48.588Z,8.10
2019-05-11T20:25:18.939Z,8.00
2019-05-11T20:27:48.383Z,8.00
2019-05-11T20:30:18.276Z,8.10
2019-05-11T20:32:48.491Z,8.00
2019-05-11T20:35:16.425Z,8.00
2019-05-11T20:37:44.350Z,7.90
2019-05-11T20:40:12.533Z,7.90
2019-05-11T20:42:40.415Z,7.90
2019-05-11T20:45:08.739Z,8.10
2019-05-11T20:47:38.239Z,8.20
2019-05-11T20:50:07.961Z,8.50
2019-05-11T20:52:35.944Z,8.70
2019-05-11T20:55:04.465Z,8.80
2019-05-11T20:57:32.323Z,8.80
2019-05-11T21:00:00.254Z,8.80
2019-05-11T21:02:28.832Z,8.80
2019-05-11T21:04:58.694Z,8.80
2019-05-11T21:07:27.973Z,8.70
2019-05-11T21:09:57.741Z,8.80
2019-05-11T21:12:25.697Z,8.80
2019-05-11T21:14:57.896Z,8.70
2019-05-11T21:17:27.274Z,8.60
2019-05-11T21:19:56.920Z,8.60
2019-05-11T21:22:27.984Z,8.60
2019-05-11T21:24:58.186Z,8.50
2019-05-11T21:27:28.712Z,8.30
2019-05-11T21:29:59.354Z,8.20
2019-05-11T21:32:28.209Z,8.20
2019-05-11T21:34:58.373Z,8.10
2019-05-11T21:37:27.893Z,8.10
2019-05-11T21:39:57.793Z,8.10
2019-05-11T21:42:28.072Z,8.20
2019-05-11T21:44:58.170Z,8.10
2019-05-11T21:47:28.921Z,8.10
2019-05-11T21:49:58.329Z,8.10
2019-05-11T21:52:28.579Z,8.10
2019-05-11T21:54:58.340Z,8.10
2019-05-11T21:57:27.860Z,8.10
2019-05-11T21:59:57.412Z,8.10
2019-05-11T22:02:26.096Z,8.00
2019-05-11T22:04:54.428Z,8.00
2019-05-11T22:07:23.362Z,8.00
2019-05-11T22:09:51.648Z,8.00
2019-05-11T22:12:20.092Z,7.90
2019-05-11T22:14:48.897Z,7.80
2019-05-11T22:17:18.246Z,7.70
2019-05-11T22:19:47.723Z,7.60
2019-05-11T22:22:22.452Z,7.60
2019-05-11T22:24:47.713Z,7.50
2019-05-11T22:27:15.664Z,7.50
2019-05-11T22:29:43.658Z,7.50
2019-05-11T22:32:11.980Z,7.40
2019-05-11T22:34:39.967Z,7.40
2019-05-11T22:37:08.631Z,7.40
2019-05-11T22:39:37.754Z,7.40
2019-05-11T22:42:07.799Z,7.40
2019-05-11T22:44:38.007Z,7.40
2019-05-11T22:47:05.888Z,7.40
2019-05-11T22:49:35.950Z,7.40
2019-05-11T22:52:03.819Z,7.40
2019-05-11T22:54:31.769Z,7.30
2019-05-11T22:56:59.633Z,7.30
2019-05-11T22:59:28.140Z,7.30
2019-05-11T23:01:56.050Z,7.30
2019-05-11T23:04:23.974Z,7.40
2019-05-11T23:06:51.828Z,7.40
2019-05-11T23:09:20.063Z,7.40
2019-05-11T23:11:48.304Z,7.30
2019-05-11T23:14:17.722Z,7.40
2019-05-11T23:16:49.736Z,7.40
2019-05-11T23:19:18.125Z,7.40
2019-05-11T23:21:48.046Z,7.40
2019-05-11T23:24:17.932Z,7.40
2019-05-11T23:26:47.895Z,7.30
2019-05-11T23:29:15.787Z,7.20
2019-05-11T23:31:43.619Z,7.00
2019-05-11T23:34:11.593Z,6.90
2019-05-11T23:36:39.594Z,6.80
2019-05-11T23:39:09.008Z,6.70
2019-05-11T23:41:38.023Z,6.70
2019-05-11T23:44:06.038Z,6.60
2019-05-11T23:46:34.128Z,6.50
2019-05-11T23:49:02.140Z,6.60
2019-05-11T23:51:30.037Z,6.50
2019-05-11T23:53:58.830Z,6.40
2019-05-11T23:56:28.157Z,6.20
2019-05-11T23:58:57.843Z,6.20
